createdAt,value
2023-03-16T00:00:19.322Z,100.00
2023-03-16T00:01:07.876Z,100.00
2023-03-16T00:01:49.522Z,100.00
2023-03-16T00:02:31.161Z,100.00
2023-03-16T00:03:19.324Z,100.00
2023-03-16T00:04:01.089Z,100.00
2023-03-16T00:04:42.731Z,100.00
2023-03-16T00:05:25.883Z,100.00
2023-03-16T00:06:07.759Z,100.00
2023-03-16T00:06:49.561Z,100.00
2023-03-16T00:07:31.226Z,100.00
2023-03-16T00:08:13.596Z,100.00
2023-03-16T00:08:59.026Z,100.00
2023-03-16T00:09:41.687Z,100.00
2023-03-16T00:10:27.318Z,100.00
2023-03-16T00:11:09.275Z,100.00
2023-03-16T00:11:50.874Z,100.00
2023-03-16T00:12:34.714Z,100.00
2023-03-16T00:13:18.264Z,100.00
2023-03-16T00:13:59.862Z,100.00
2023-03-16T00:14:46.004Z,100.00
2023-03-16T00:15:27.594Z,100.00
2023-03-16T00:16:09.252Z,100.00
2023-03-16T00:16:50.934Z,100.00
2023-03-16T00:17:34.651Z,100.00
2023-03-16T00:18:16.378Z,100.00
2023-03-16T00:18:59.202Z,100.00
2023-03-16T00:19:46.811Z,100.00
2023-03-16T00:20:28.900Z,100.00
2023-03-16T00:21:13.342Z,100.00
2023-03-16T00:21:55.031Z,100.00
2023-03-16T00:22:36.700Z,100.00
2023-03-16T00:23:20.135Z,100.00
2023-03-16T00:24:03.842Z,100.00
2023-03-16T00:24:45.592Z,100.00
2023-03-16T00:25:27.355Z,100.00
2023-03-16T00:26:09.973Z,100.00
2023-03-16T00:26:54.819Z,100.00
2023-03-16T00:27:36.590Z,100.00
2023-03-16T00:28:18.235Z,100.00
2023-03-16T00:29:00.097Z,100.00
2023-03-16T00:29:49.486Z,100.00
2023-03-16T00:30:32.658Z,100.00
2023-03-16T00:31:14.760Z,100.00
2023-03-16T00:31:56.553Z,100.00
2023-03-16T00:32:39.594Z,100.00
2023-03-16T00:33:21.202Z,100.00
2023-03-16T00:34:02.815Z,100.00
2023-03-16T00:34:45.761Z,100.00
2023-03-16T00:35:27.571Z,100.00
2023-03-16T00:36:11.279Z,100.00
2023-03-16T00:36:52.983Z,100.00
2023-03-16T00:37:35.037Z,100.00
2023-03-16T00:38:20.329Z,100.00
2023-03-16T00:39:02.322Z,100.00
2023-03-16T00:39:45.875Z,100.00
2023-03-16T00:40:27.987Z,100.00
2023-03-16T00:41:09.982Z,100.00
2023-03-16T00:41:51.637Z,100.00
2023-03-16T00:42:34.747Z,100.00
2023-03-16T00:43:18.754Z,100.00
2023-03-16T00:44:01.064Z,100.00
2023-03-16T00:44:42.983Z,100.00
2023-03-16T00:45:24.994Z,100.00
2023-03-16T00:46:08.877Z,100.00
2023-03-16T00:46:51.597Z,100.00
2023-03-16T00:47:34.250Z,100.00
2023-03-16T00:48:16.565Z,100.00
2023-03-16T00:48:58.258Z,100.00
2023-03-16T00:49:42.756Z,100.00
2023-03-16T00:50:24.428Z,100.00
2023-03-16T00:51:08.838Z,100.00
2023-03-16T00:51:50.842Z,100.00
2023-03-16T00:52:35.371Z,100.00
2023-03-16T00:53:17.133Z,100.00
2023-03-16T00:53:58.796Z,100.00
2023-03-16T00:54:45.763Z,100.00
2023-03-16T00:55:27.422Z,100.00
2023-03-16T00:56:10.334Z,100.00
2023-03-16T00:56:51.953Z,100.00
2023-03-16T00:57:34.262Z,100.00
2023-03-16T00:58:15.884Z,100.00
2023-03-16T00:58:57.873Z,100.00
2023-03-16T00:59:40.425Z,100.00
2023-03-16T01:00:22.434Z,100.00
2023-03-16T01:01:18.756Z,100.00
2023-03-16T01:02:00.516Z,100.00
2023-03-16T01:02:45.814Z,100.00
2023-03-16T01:03:27.485Z,100.00
2023-03-16T01:04:09.396Z,100.00
2023-03-16T01:04:52.562Z,100.00
2023-03-16T01:05:34.155Z,100.00
2023-03-16T01:06:17.472Z,100.00
2023-03-16T01:06:59.104Z,100.00
2023-03-16T01:07:41.539Z,100.00
2023-03-16T01:08:23.218Z,100.00
2023-03-16T01:09:05.720Z,100.00
2023-03-16T01:09:47.573Z,100.00
2023-03-16T01:10:29.781Z,100.00
2023-03-16T01:11:17.420Z,100.00
2023-03-16T01:11:59.183Z,100.00
2023-03-16T01:12:45.107Z,100.00
2023-03-16T01:13:26.719Z,100.00
2023-03-16T01:14:10.243Z,100.00
2023-03-16T01:14:52.305Z,100.00
2023-03-16T01:15:34.852Z,100.00
2023-03-16T01:16:23.180Z,100.00
2023-03-16T01:17:08.592Z,100.00
2023-03-16T01:17:51.777Z,100.00
2023-03-16T01:18:34.203Z,100.00
2023-03-16T01:19:15.959Z,100.00
2023-03-16T01:19:57.597Z,100.00
2023-03-16T01:20:39.887Z,100.00
2023-03-16T01:21:22.126Z,100.00
2023-03-16T01:22:06.697Z,100.00
2023-03-16T01:22:48.274Z,100.00
2023-03-16T01:23:31.291Z,100.00
2023-03-16T01:24:12.876Z,100.00
2023-03-16T01:24:55.213Z,100.00
2023-03-16T01:25:36.844Z,100.00
2023-03-16T01:26:18.820Z,100.00
2023-03-16T01:27:03.041Z,100.00
2023-03-16T01:27:44.701Z,100.00
2023-03-16T01:28:29.389Z,100.00
2023-03-16T01:29:12.447Z,100.00
2023-03-16T01:29:54.696Z,100.00
2023-03-16T01:30:36.714Z,100.00
2023-03-16T01:31:18.484Z,100.00
2023-03-16T01:32:01.344Z,100.00
2023-03-16T01:32:43.369Z,100.00
2023-03-16T01:33:28.263Z,100.00
2023-03-16T01:34:16.472Z,100.00
2023-03-16T01:34:58.425Z,100.00
2023-03-16T01:35:40.042Z,100.00
2023-03-16T01:36:22.101Z,100.00
2023-03-16T01:37:09.946Z,100.00
2023-03-16T01:38:07.475Z,100.00
2023-03-16T01:38:49.732Z,100.00
2023-03-16T01:39:31.481Z,100.00
2023-03-16T01:40:13.476Z,100.00
2023-03-16T01:40:55.868Z,100.00
2023-03-16T01:41:39.437Z,100.00
2023-03-16T01:42:21.166Z,100.00
2023-03-16T01:43:04.742Z,100.00
2023-03-16T01:43:51.882Z,100.00
2023-03-16T01:44:56.048Z,100.00
2023-03-16T01:46:06.574Z,100.00
2023-03-16T01:46:54.763Z,100.00
2023-03-16T01:47:38.403Z,100.00
2023-03-16T01:48:25.858Z,100.00
2023-03-16T01:49:12.503Z,100.00
2023-03-16T01:49:56.764Z,100.00
2023-03-16T01:50:42.272Z,100.00
2023-03-16T01:51:31.017Z,100.00
2023-03-16T01:52:18.074Z,100.00
2023-03-16T01:52:59.720Z,100.00
2023-03-16T01:53:45.816Z,100.00
2023-03-16T01:54:40.926Z,100.00
2023-03-16T01:55:22.803Z,100.00
2023-03-16T01:56:08.832Z,100.00
2023-03-16T01:56:59.946Z,100.00
2023-03-16T01:57:45.168Z,100.00
2023-03-16T01:58:28.862Z,100.00
2023-03-16T01:59:16.368Z,100.00
2023-03-16T02:00:19.874Z,100.00
2023-03-16T02:01:14.113Z,100.00
2023-03-16T02:01:56.780Z,100.00
2023-03-16T02:02:43.514Z,100.00
2023-03-16T02:03:30.035Z,100.00
2023-03-16T02:04:43.042Z,100.00
2023-03-16T02:05:56.343Z,100.00
2023-03-16T02:06:40.009Z,100.00
2023-03-16T02:07:24.637Z,100.00
2023-03-16T02:08:09.545Z,100.00
2023-03-16T02:08:55.234Z,100.00
2023-03-16T02:09:42.617Z,100.00
2023-03-16T02:10:27.617Z,100.00
2023-03-16T02:11:09.939Z,100.00
2023-03-16T02:11:59.550Z,100.00
2023-03-16T02:12:43.226Z,100.00
2023-03-16T02:13:26.385Z,100.00
2023-03-16T02:14:11.796Z,100.00
2023-03-16T02:14:53.532Z,100.00
2023-03-16T02:15:36.076Z,100.00
2023-03-16T02:16:19.516Z,100.00
2023-03-16T02:17:01.602Z,100.00
2023-03-16T02:17:45.276Z,100.00
2023-03-16T02:18:28.894Z,100.00
2023-03-16T02:19:27.056Z,100.00
2023-03-16T02:20:23.089Z,100.00
2023-03-16T02:21:39.782Z,100.00
2023-03-16T02:22:24.929Z,100.00
2023-03-16T02:23:10.259Z,100.00
2023-03-16T02:23:52.520Z,100.00
2023-03-16T02:24:37.119Z,100.00
2023-03-16T02:25:19.173Z,100.00
2023-03-16T02:26:08.596Z,100.00
2023-03-16T02:27:13.807Z,100.00
2023-03-16T02:28:13.391Z,100.00
2023-03-16T02:29:00.228Z,100.00
2023-03-16T02:30:02.754Z,100.00
2023-03-16T02:30:49.486Z,100.00
2023-03-16T02:31:31.988Z,100.00
2023-03-16T02:32:15.235Z,100.00
2023-03-16T02:32:57.441Z,100.00
2023-03-16T02:33:39.943Z,100.00
2023-03-16T02:34:26.361Z,100.00
2023-03-16T02:35:10.071Z,100.00
2023-03-16T02:35:51.958Z,100.00
2023-03-16T02:36:34.860Z,100.00
2023-03-16T02:37:16.643Z,100.00
2023-03-16T02:37:58.357Z,100.00
2023-03-16T02:38:44.733Z,100.00
2023-03-16T02:39:26.677Z,100.00
2023-03-16T02:40:25.610Z,100.00
2023-03-16T02:41:15.524Z,100.00
2023-03-16T02:41:57.560Z,100.00
2023-03-16T02:42:39.309Z,100.00
2023-03-16T02:43:24.842Z,100.00
2023-03-16T02:44:26.428Z,100.00
2023-03-16T02:45:09.897Z,100.00
2023-03-16T02:45:55.216Z,100.00
2023-03-16T02:46:39.187Z,100.00
2023-03-16T02:47:28.569Z,100.00
2023-03-16T02:48:16.562Z,100.00
2023-03-16T02:49:05.702Z,100.00
2023-03-16T02:49:47.393Z,100.00
2023-03-16T02:50:30.410Z,100.00
2023-03-16T02:51:12.780Z,100.00
2023-03-16T02:51:54.447Z,100.00
2023-03-16T02:52:38.208Z,100.00
2023-03-16T02:53:21.010Z,100.00
2023-03-16T02:54:03.230Z,100.00
2023-03-16T02:54:47.427Z,100.00
2023-03-16T02:55:29.224Z,100.00
2023-03-16T02:56:10.912Z,100.00
2023-03-16T02:56:53.099Z,100.00
2023-03-16T02:57:35.642Z,100.00
2023-03-16T02:58:22.626Z,100.00
2023-03-16T02:59:04.893Z,100.00
2023-03-16T02:59:46.796Z,100.00
2023-03-16T03:00:30.036Z,100.00
2023-03-16T03:01:11.716Z,100.00
2023-03-16T03:01:54.284Z,100.00
2023-03-16T03:02:35.892Z,100.00
2023-03-16T03:03:17.642Z,100.00
2023-03-16T03:03:59.267Z,100.00
2023-03-16T03:04:41.776Z,100.00
2023-03-16T03:05:23.990Z,100.00
2023-03-16T03:06:06.366Z,100.00
2023-03-16T03:06:51.793Z,100.00
2023-03-16T03:07:33.517Z,100.00
2023-03-16T03:08:22.363Z,100.00
2023-03-16T03:09:05.220Z,100.00
2023-03-16T03:09:47.226Z,100.00
2023-03-16T03:10:29.333Z,100.00
2023-03-16T03:11:11.851Z,100.00
2023-03-16T03:11:53.435Z,100.00
2023-03-16T03:12:35.877Z,100.00
2023-03-16T03:13:20.819Z,100.00
2023-03-16T03:14:03.890Z,100.00
2023-03-16T03:14:45.550Z,100.00
2023-03-16T03:15:31.146Z,100.00
2023-03-16T03:16:18.362Z,100.00
2023-03-16T03:17:00.057Z,100.00
2023-03-16T03:17:42.994Z,100.00
2023-03-16T03:18:25.459Z,100.00
2023-03-16T03:19:07.796Z,100.00
2023-03-16T03:19:53.181Z,100.00
2023-03-16T03:20:35.970Z,100.00
2023-03-16T03:21:17.625Z,100.00
2023-03-16T03:22:00.237Z,100.00
2023-03-16T03:22:45.017Z,100.00
2023-03-16T03:23:26.859Z,100.00
2023-03-16T03:24:09.467Z,100.00
2023-03-16T03:24:53.187Z,100.00
2023-03-16T03:25:35.105Z,100.00
2023-03-16T03:26:16.998Z,100.00
2023-03-16T03:27:05.962Z,100.00
2023-03-16T03:27:50.878Z,100.00
2023-03-16T03:28:35.345Z,100.00
2023-03-16T03:29:16.952Z,100.00
2023-03-16T03:29:58.677Z,100.00
2023-03-16T03:30:41.747Z,100.00
2023-03-16T03:31:23.562Z,100.00
2023-03-16T03:32:07.399Z,100.00
2023-03-16T03:32:49.145Z,100.00
2023-03-16T03:33:33.692Z,100.00
2023-03-16T03:34:15.556Z,100.00
2023-03-16T03:34:57.250Z,100.00
2023-03-16T03:35:42.089Z,100.00
2023-03-16T03:36:23.973Z,100.00
2023-03-16T03:37:05.711Z,100.00
2023-03-16T03:37:47.964Z,100.00
2023-03-16T03:38:30.856Z,100.00
2023-03-16T03:39:12.566Z,100.00
2023-03-16T03:39:54.207Z,100.00
2023-03-16T03:40:36.170Z,100.00
2023-03-16T03:41:18.713Z,100.00
2023-03-16T03:42:02.946Z,100.00
2023-03-16T03:42:44.580Z,100.00
2023-03-16T03:43:26.632Z,100.00
2023-03-16T03:44:08.507Z,100.00
2023-03-16T03:44:52.582Z,100.00
2023-03-16T03:45:34.451Z,100.00
2023-03-16T03:46:16.423Z,100.00
2023-03-16T03:46:58.217Z,100.00
2023-03-16T03:47:42.813Z,100.00
2023-03-16T03:48:28.778Z,100.00
2023-03-16T03:49:11.887Z,100.00
2023-03-16T03:49:53.720Z,100.00
2023-03-16T03:50:35.495Z,100.00
2023-03-16T03:51:41.243Z,100.00
2023-03-16T03:52:28.693Z,100.00
2023-03-16T03:53:10.596Z,100.00
2023-03-16T03:54:09.104Z,100.00
2023-03-16T03:55:17.054Z,100.00
2023-03-16T03:55:58.965Z,100.00
2023-03-16T03:56:40.593Z,100.00
2023-03-16T03:57:26.569Z,100.00
2023-03-16T03:58:08.606Z,100.00
2023-03-16T03:58:50.412Z,100.00
2023-03-16T03:59:45.031Z,100.00
2023-03-16T04:00:29.752Z,100.00
2023-03-16T04:01:11.581Z,100.00
2023-03-16T04:01:53.804Z,100.00
2023-03-16T04:02:38.500Z,100.00
2023-03-16T04:03:21.867Z,100.00
2023-03-16T04:04:03.642Z,100.00
2023-03-16T04:04:45.354Z,100.00
2023-03-16T04:05:28.298Z,100.00
2023-03-16T04:06:09.962Z,100.00
2023-03-16T04:06:51.658Z,100.00
2023-03-16T04:07:33.420Z,100.00
2023-03-16T04:08:18.801Z,100.00
2023-03-16T04:09:01.096Z,100.00
2023-03-16T04:09:44.360Z,100.00
2023-03-16T04:10:35.415Z,100.00
2023-03-16T04:11:17.033Z,100.00
2023-03-16T04:11:59.007Z,100.00
2023-03-16T04:12:40.888Z,100.00
2023-03-16T04:13:25.320Z,100.00
2023-03-16T04:14:07.654Z,100.00
2023-03-16T04:14:50.145Z,100.00
2023-03-16T04:15:32.945Z,100.00
2023-03-16T04:16:28.387Z,100.00
2023-03-16T04:17:12.363Z,100.00
2023-03-16T04:17:54.200Z,100.00
2023-03-16T04:18:38.588Z,100.00
2023-03-16T04:19:22.742Z,100.00
2023-03-16T04:20:11.725Z,100.00
2023-03-16T04:20:53.505Z,100.00
2023-03-16T04:21:38.093Z,100.00
2023-03-16T04:22:19.979Z,100.00
2023-03-16T04:23:02.477Z,100.00
2023-03-16T04:23:45.298Z,100.00
2023-03-16T04:24:26.985Z,100.00
2023-03-16T04:25:11.536Z,100.00
2023-03-16T04:25:54.839Z,100.00
2023-03-16T04:26:37.326Z,100.00
2023-03-16T04:27:19.770Z,100.00
2023-03-16T04:28:02.098Z,100.00
2023-03-16T04:28:46.326Z,100.00
2023-03-16T04:29:31.972Z,100.00
2023-03-16T04:30:14.673Z,100.00
2023-03-16T04:31:02.933Z,100.00
2023-03-16T04:31:50.882Z,100.00
2023-03-16T04:32:34.189Z,100.00
2023-03-16T04:33:16.425Z,100.00
2023-03-16T04:33:59.114Z,100.00
2023-03-16T04:34:43.675Z,100.00
2023-03-16T04:35:27.745Z,100.00
2023-03-16T04:36:12.078Z,100.00
2023-03-16T04:36:54.841Z,100.00
2023-03-16T04:37:36.866Z,100.00
2023-03-16T04:38:19.936Z,100.00
2023-03-16T04:39:10.742Z,100.00
2023-03-16T04:39:52.446Z,100.00
2023-03-16T04:40:34.116Z,100.00
2023-03-16T04:41:26.465Z,100.00
2023-03-16T04:42:26.601Z,100.00
2023-03-16T04:43:08.281Z,100.00
2023-03-16T04:43:50.608Z,100.00
2023-03-16T04:44:43.939Z,100.00
2023-03-16T04:45:26.260Z,100.00
2023-03-16T04:46:10.738Z,100.00
2023-03-16T04:46:52.703Z,100.00
2023-03-16T04:47:37.688Z,100.00
2023-03-16T04:48:19.303Z,100.00
2023-03-16T04:49:00.918Z,100.00
2023-03-16T04:49:43.905Z,100.00
2023-03-16T04:50:25.665Z,100.00
2023-03-16T04:51:09.640Z,100.00
2023-03-16T04:51:55.434Z,100.00
2023-03-16T04:52:37.332Z,100.00
2023-03-16T04:53:18.935Z,100.00
2023-03-16T04:54:05.557Z,100.00
2023-03-16T04:54:53.722Z,100.00
2023-03-16T04:55:35.489Z,100.00
2023-03-16T04:56:20.491Z,100.00
2023-03-16T04:57:08.437Z,100.00
2023-03-16T04:58:01.496Z,100.00
2023-03-16T04:58:49.298Z,100.00
2023-03-16T04:59:31.841Z,100.00
2023-03-16T05:00:22.181Z,100.00
2023-03-16T05:01:29.530Z,100.00
2023-03-16T05:02:14.272Z,100.00
2023-03-16T05:02:56.064Z,100.00
2023-03-16T05:03:37.804Z,100.00
2023-03-16T05:04:20.009Z,100.00
2023-03-16T05:05:04.221Z,100.00
2023-03-16T05:05:47.414Z,100.00
2023-03-16T05:06:31.038Z,100.00
2023-03-16T05:07:14.576Z,100.00
2023-03-16T05:08:01.960Z,100.00
2023-03-16T05:08:45.963Z,100.00
2023-03-16T05:09:27.567Z,100.00
2023-03-16T05:10:11.265Z,100.00
2023-03-16T05:10:58.089Z,100.00
2023-03-16T05:11:40.189Z,100.00
2023-03-16T05:12:24.632Z,100.00
2023-03-16T05:13:10.615Z,100.00
2023-03-16T05:13:52.578Z,100.00
2023-03-16T05:14:36.002Z,100.00
2023-03-16T05:15:34.318Z,100.00
2023-03-16T05:16:30.944Z,100.00
2023-03-16T05:17:14.804Z,100.00
2023-03-16T05:17:57.884Z,100.00
2023-03-16T05:18:40.264Z,100.00
2023-03-16T05:19:21.981Z,100.00
2023-03-16T05:20:08.193Z,100.00
2023-03-16T05:20:53.697Z,100.00
2023-03-16T05:21:37.691Z,100.00
2023-03-16T05:22:22.643Z,100.00
2023-03-16T05:23:24.288Z,100.00
2023-03-16T05:24:13.946Z,100.00
2023-03-16T05:24:55.770Z,100.00
2023-03-16T05:25:38.259Z,100.00
2023-03-16T05:26:21.246Z,100.00
2023-03-16T05:27:03.385Z,100.00
2023-03-16T05:27:47.673Z,100.00
2023-03-16T05:28:34.982Z,100.00
2023-03-16T05:29:20.038Z,100.00
2023-03-16T05:30:01.695Z,100.00
2023-03-16T05:30:45.431Z,100.00
2023-03-16T05:31:34.813Z,100.00
2023-03-16T05:32:18.981Z,100.00
2023-03-16T05:33:01.130Z,100.00
2023-03-16T05:33:44.507Z,100.00
2023-03-16T05:34:31.609Z,100.00
2023-03-16T05:35:13.713Z,100.00
2023-03-16T05:35:57.980Z,100.00
2023-03-16T05:36:40.129Z,100.00
2023-03-16T05:37:26.807Z,100.00
2023-03-16T05:38:09.887Z,100.00
2023-03-16T05:38:54.595Z,100.00
2023-03-16T05:39:50.840Z,100.00
2023-03-16T05:40:33.031Z,100.00
2023-03-16T05:41:24.252Z,100.00
2023-03-16T05:42:19.794Z,100.00
2023-03-16T05:43:08.170Z,100.00
2023-03-16T05:43:55.968Z,100.00
2023-03-16T05:44:41.356Z,100.00
2023-03-16T05:45:51.958Z,100.00
2023-03-16T05:46:34.715Z,100.00
2023-03-16T05:47:19.846Z,100.00
2023-03-16T05:48:06.457Z,100.00
2023-03-16T05:48:51.709Z,100.00
2023-03-16T05:49:35.168Z,100.00
2023-03-16T05:50:20.634Z,100.00
2023-03-16T05:51:05.879Z,100.00
2023-03-16T05:51:49.031Z,100.00
2023-03-16T05:52:31.251Z,100.00
2023-03-16T05:53:15.607Z,100.00
2023-03-16T05:53:57.573Z,100.00
2023-03-16T05:54:48.073Z,100.00
2023-03-16T05:55:30.000Z,100.00
2023-03-16T05:56:15.427Z,100.00
2023-03-16T05:56:59.780Z,100.00
2023-03-16T05:57:42.102Z,100.00
2023-03-16T05:58:24.015Z,100.00
2023-03-16T05:59:06.410Z,100.00
2023-03-16T05:59:48.777Z,100.00
2023-03-16T06:00:31.833Z,100.00
2023-03-16T06:01:26.517Z,100.00
2023-03-16T06:02:10.796Z,100.00
2023-03-16T06:02:53.161Z,100.00
2023-03-16T06:03:36.662Z,100.00
2023-03-16T06:04:19.736Z,100.00
2023-03-16T06:05:01.943Z,100.00
2023-03-16T06:05:43.720Z,100.00
2023-03-16T06:06:26.016Z,100.00
2023-03-16T06:07:13.831Z,100.00
2023-03-16T06:07:55.720Z,100.00
2023-03-16T06:08:38.706Z,100.00
2023-03-16T06:09:25.806Z,100.00
2023-03-16T06:10:08.858Z,100.00
2023-03-16T06:10:50.764Z,100.00
2023-03-16T06:11:33.405Z,100.00
2023-03-16T06:12:15.297Z,100.00
2023-03-16T06:12:59.507Z,100.00
2023-03-16T06:13:41.534Z,100.00
2023-03-16T06:14:24.823Z,100.00
2023-03-16T06:15:10.214Z,100.00
2023-03-16T06:15:51.965Z,100.00
2023-03-16T06:16:33.777Z,100.00
2023-03-16T06:17:15.926Z,100.00
2023-03-16T06:17:57.814Z,100.00
2023-03-16T06:18:40.243Z,100.00
2023-03-16T06:19:22.626Z,100.00
2023-03-16T06:20:13.001Z,100.00
2023-03-16T06:20:56.399Z,100.00
2023-03-16T06:21:38.918Z,100.00
2023-03-16T06:22:25.124Z,100.00
2023-03-16T06:23:06.852Z,100.00
2023-03-16T06:23:48.659Z,100.00
2023-03-16T06:24:30.382Z,100.00
2023-03-16T06:25:13.264Z,100.00
2023-03-16T06:25:56.468Z,100.00
2023-03-16T06:26:41.123Z,100.00
2023-03-16T06:27:26.617Z,100.00
2023-03-16T06:28:23.261Z,100.00
2023-03-16T06:29:05.893Z,100.00
2023-03-16T06:29:49.793Z,100.00
2023-03-16T06:30:31.669Z,100.00
2023-03-16T06:31:13.926Z,100.00
2023-03-16T06:31:57.356Z,100.00
2023-03-16T06:32:42.102Z,100.00
2023-03-16T06:33:24.840Z,100.00
2023-03-16T06:34:06.527Z,100.00
2023-03-16T06:34:48.640Z,100.00
2023-03-16T06:35:30.408Z,100.00
2023-03-16T06:36:26.205Z,100.00
2023-03-16T06:37:11.270Z,100.00
2023-03-16T06:37:52.871Z,100.00
2023-03-16T06:38:57.681Z,100.00
2023-03-16T06:39:52.320Z,100.00
2023-03-16T06:40:34.005Z,100.00
2023-03-16T06:41:15.627Z,100.00
2023-03-16T06:41:59.350Z,100.00
2023-03-16T06:42:40.984Z,100.00
2023-03-16T06:43:25.767Z,100.00
2023-03-16T06:44:07.633Z,100.00
2023-03-16T06:44:53.292Z,100.00
2023-03-16T06:45:35.002Z,100.00
2023-03-16T06:46:17.603Z,100.00
2023-03-16T06:46:59.436Z,100.00
2023-03-16T06:47:41.250Z,100.00
2023-03-16T06:48:23.769Z,100.00
2023-03-16T06:49:05.509Z,100.00
2023-03-16T06:49:47.861Z,100.00
2023-03-16T06:50:34.426Z,100.00
2023-03-16T06:51:16.900Z,100.00
2023-03-16T06:52:00.785Z,100.00
2023-03-16T06:52:42.593Z,100.00
2023-03-16T06:53:24.403Z,100.00
2023-03-16T06:54:07.689Z,100.00
2023-03-16T06:54:52.921Z,100.00
2023-03-16T06:55:35.173Z,100.00
2023-03-16T06:56:16.926Z,100.00
2023-03-16T06:57:00.317Z,100.00
2023-03-16T06:57:42.214Z,100.00
2023-03-16T06:58:23.863Z,100.00
2023-03-16T06:59:05.753Z,100.00
2023-03-16T06:59:47.510Z,100.00
2023-03-16T07:00:30.811Z,100.00
2023-03-16T07:01:12.688Z,100.00
2023-03-16T07:01:54.535Z,100.00
2023-03-16T07:02:36.255Z,100.00
2023-03-16T07:03:19.328Z,100.00
2023-03-16T07:04:06.704Z,100.00
2023-03-16T07:04:52.287Z,100.00
2023-03-16T07:05:34.004Z,100.00
2023-03-16T07:06:16.464Z,100.00
2023-03-16T07:06:58.432Z,100.00
2023-03-16T07:07:42.868Z,100.00
2023-03-16T07:08:24.592Z,100.00
2023-03-16T07:09:06.353Z,100.00
2023-03-16T07:09:49.190Z,100.00
2023-03-16T07:10:31.422Z,100.00
2023-03-16T07:11:14.875Z,100.00
2023-03-16T07:11:56.490Z,100.00
2023-03-16T07:12:38.320Z,100.00
2023-03-16T07:13:20.603Z,100.00
2023-03-16T07:14:02.820Z,100.00
2023-03-16T07:14:50.081Z,100.00
2023-03-16T07:15:35.845Z,100.00
2023-03-16T07:16:17.987Z,100.00
2023-03-16T07:16:59.741Z,100.00
2023-03-16T07:17:42.535Z,100.00
2023-03-16T07:18:26.056Z,100.00
2023-03-16T07:19:07.955Z,100.00
2023-03-16T07:19:49.795Z,100.00
2023-03-16T07:20:32.998Z,100.00
2023-03-16T07:21:16.957Z,100.00
2023-03-16T07:21:59.597Z,100.00
2023-03-16T07:22:42.671Z,100.00
2023-03-16T07:23:27.266Z,100.00
2023-03-16T07:24:15.347Z,100.00
2023-03-16T07:24:57.478Z,100.00
2023-03-16T07:25:40.768Z,100.00
2023-03-16T07:26:22.972Z,100.00
2023-03-16T07:27:11.425Z,100.00
2023-03-16T07:27:54.152Z,100.00
2023-03-16T07:28:41.834Z,100.00
2023-03-16T07:29:23.636Z,100.00
2023-03-16T07:30:05.917Z,100.00
2023-03-16T07:31:02.921Z,100.00
2023-03-16T07:31:50.672Z,100.00
2023-03-16T07:32:36.768Z,100.00
2023-03-16T07:33:19.285Z,100.00
2023-03-16T07:34:02.349Z,100.00
2023-03-16T07:34:51.889Z,100.00
2023-03-16T07:35:33.556Z,100.00
2023-03-16T07:36:15.728Z,100.00
2023-03-16T07:37:03.653Z,100.00
2023-03-16T07:37:47.412Z,100.00
2023-03-16T07:38:29.071Z,100.00
2023-03-16T07:39:14.253Z,100.00
2023-03-16T07:39:56.936Z,100.00
2023-03-16T07:40:41.920Z,100.00
2023-03-16T07:41:32.579Z,100.00
2023-03-16T07:42:28.499Z,100.00
2023-03-16T07:43:19.279Z,100.00
2023-03-16T07:44:04.511Z,100.00
2023-03-16T07:44:46.150Z,100.00
2023-03-16T07:45:28.038Z,100.00
2023-03-16T07:46:13.700Z,100.00
2023-03-16T07:46:55.536Z,100.00
2023-03-16T07:47:40.222Z,100.00
2023-03-16T07:48:29.460Z,100.00
2023-03-16T07:49:16.893Z,100.00
2023-03-16T07:50:00.205Z,100.00
2023-03-16T07:50:43.262Z,100.00
2023-03-16T07:51:25.208Z,100.00
2023-03-16T07:52:07.659Z,100.00
2023-03-16T07:52:54.357Z,100.00
2023-03-16T07:53:36.158Z,100.00
2023-03-16T07:54:36.454Z,100.00
2023-03-16T07:55:20.739Z,100.00
2023-03-16T07:56:05.850Z,100.00
2023-03-16T07:56:50.173Z,100.00
2023-03-16T07:57:49.909Z,100.00
2023-03-16T07:58:35.658Z,100.00
2023-03-16T07:59:18.786Z,100.00
2023-03-16T08:00:07.564Z,100.00
2023-03-16T08:00:58.814Z,100.00
2023-03-16T08:01:40.501Z,100.00
2023-03-16T08:02:22.391Z,100.00
2023-03-16T08:03:05.187Z,100.00
2023-03-16T08:03:46.980Z,100.00
2023-03-16T08:04:28.681Z,100.00
2023-03-16T08:05:10.923Z,100.00
2023-03-16T08:05:54.995Z,100.00
2023-03-16T08:06:36.715Z,100.00
2023-03-16T08:07:18.366Z,100.00
2023-03-16T08:08:11.506Z,100.00
2023-03-16T08:08:54.098Z,100.00
2023-03-16T08:09:42.912Z,100.00
2023-03-16T08:10:28.471Z,100.00
2023-03-16T08:11:23.706Z,100.00
2023-03-16T08:12:11.891Z,100.00
2023-03-16T08:12:53.675Z,100.00
2023-03-16T08:13:35.443Z,100.00
2023-03-16T08:14:17.130Z,100.00
2023-03-16T08:15:27.760Z,100.00
2023-03-16T08:16:16.716Z,100.00
2023-03-16T08:17:05.944Z,100.00
2023-03-16T08:17:47.852Z,100.00
2023-03-16T08:18:36.714Z,100.00
2023-03-16T08:19:20.220Z,100.00
2023-03-16T08:20:10.222Z,100.00
2023-03-16T08:20:52.284Z,100.00
2023-03-16T08:21:39.860Z,100.00
2023-03-16T08:22:27.142Z,100.00
2023-03-16T08:23:09.320Z,100.00
2023-03-16T08:23:55.152Z,100.00
2023-03-16T08:24:38.409Z,100.00
2023-03-16T08:25:23.073Z,100.00
2023-03-16T08:26:20.318Z,100.00
2023-03-16T08:27:03.679Z,100.00
2023-03-16T08:27:46.717Z,100.00
2023-03-16T08:28:29.681Z,100.00
2023-03-16T08:29:12.966Z,100.00
2023-03-16T08:29:55.050Z,100.00
2023-03-16T08:30:51.037Z,100.00
2023-03-16T08:31:43.971Z,100.00
2023-03-16T08:32:29.525Z,100.00
2023-03-16T08:33:11.309Z,100.00
2023-03-16T08:33:53.129Z,100.00
2023-03-16T08:34:39.976Z,100.00
2023-03-16T08:35:22.833Z,100.00
2023-03-16T08:36:09.930Z,100.00
2023-03-16T08:36:51.829Z,100.00
2023-03-16T08:37:33.654Z,100.00
2023-03-16T08:38:16.096Z,100.00
2023-03-16T08:39:06.624Z,100.00
2023-03-16T08:39:54.242Z,100.00
2023-03-16T08:40:36.870Z,100.00
2023-03-16T08:41:18.638Z,100.00
2023-03-16T08:42:02.715Z,96.24
2023-03-16T08:42:51.398Z,94.11
2023-03-16T08:43:37.096Z,92.63
2023-03-16T08:44:20.128Z,87.52
2023-03-16T08:45:11.634Z,86.01
2023-03-16T08:45:56.041Z,86.45
2023-03-16T08:46:42.394Z,87.02
2023-03-16T08:47:24.612Z,85.45
2023-03-16T08:48:07.481Z,84.90
2023-03-16T08:48:50.148Z,88.95
2023-03-16T08:49:31.882Z,91.20
2023-03-16T08:50:19.613Z,89.57
2023-03-16T08:51:03.023Z,88.04
2023-03-16T08:51:45.050Z,89.04
2023-03-16T08:52:26.794Z,86.26
2023-03-16T08:53:08.391Z,85.68
2023-03-16T08:53:50.734Z,81.06
2023-03-16T08:54:32.555Z,79.88
2023-03-16T08:55:15.575Z,80.04
2023-03-16T08:56:12.315Z,80.87
2023-03-16T08:56:54.046Z,77.39
2023-03-16T08:57:35.756Z,72.19
2023-03-16T08:58:17.366Z,70.66
2023-03-16T08:58:59.773Z,69.70
2023-03-16T08:59:41.695Z,61.46
2023-03-16T09:00:23.717Z,64.18
2023-03-16T09:01:06.038Z,67.23
2023-03-16T09:01:47.858Z,68.67
2023-03-16T09:02:29.621Z,69.21
2023-03-16T09:03:11.306Z,69.38
2023-03-16T09:03:53.103Z,67.21
2023-03-16T09:04:34.944Z,65.33
2023-03-16T09:05:18.200Z,65.24
2023-03-16T09:06:05.686Z,66.38
2023-03-16T09:06:55.815Z,68.48
2023-03-16T09:07:44.174Z,66.87
2023-03-16T09:08:25.791Z,66.00
2023-03-16T09:09:09.538Z,67.04
2023-03-16T09:09:51.470Z,63.63
2023-03-16T09:10:33.682Z,65.46
2023-03-16T09:11:18.750Z,66.39
2023-03-16T09:12:00.505Z,64.86
2023-03-16T09:12:43.528Z,66.82
2023-03-16T09:13:25.914Z,68.08
2023-03-16T09:14:08.711Z,70.87
2023-03-16T09:14:50.776Z,73.54
2023-03-16T09:15:32.406Z,74.48
2023-03-16T09:16:15.727Z,75.55
2023-03-16T09:16:57.393Z,75.58
2023-03-16T09:17:41.546Z,75.84
2023-03-16T09:18:26.067Z,73.83